Time;durP1;ratioP1;P1;durP2;ratioP2;P2;SDS_P1;SDS_P2;PMS_P1;PMS_P2;Temp;Humidity;BMP_temperature;BMP_pressure;BME280_temperature;BME280_humidity;BME280_pressure;Samples;Min_cycle;Max_cycle;Signal;HPM_P1;HPM_P2
2022/03/15 00:00:54;;;;;;;9.23;6.97;;;3.70;99.90;;;;;;5068106;28;20041;-68
2022/03/15 00:03:20;;;;;;;10.80;6.28;;;3.60;99.90;;;;;;5068579;28;20048;-68
2022/03/15 00:05:46;;;;;;;9.05;5.35;;;3.70;99.90;;;;;;5067884;28;20040;-68
2022/03/15 00:08:12;;;;;;;8.43;6.25;;;3.60;99.90;;;;;;5064846;28;20047;-68
2022/03/15 00:10:38;;;;;;;7.43;5.22;;;3.70;99.90;;;;;;5068682;28;20571;-68
2022/03/15 00:13:06;;;;;;;11.23;5.68;;;3.70;99.90;;;;;;5066345;28;20098;-68
2022/03/15 00:15:32;;;;;;;10.10;5.85;;;3.70;99.90;;;;;;5065624;28;20086;-68
2022/03/15 00:17:58;;;;;;;12.43;5.65;;;3.70;99.90;;;;;;5066862;28;20940;-67
2022/03/15 00:20:24;;;;;;;13.18;5.70;;;3.70;99.90;;;;;;5067962;28;20471;-68
2022/03/15 00:22:51;;;;;;;10.13;6.10;;;3.60;99.90;;;;;;5068155;28;20033;-68
2022/03/15 00:25:18;;;;;;;11.07;6.53;;;3.60;99.90;;;;;;5067822;28;20068;-68
2022/03/15 00:27:51;;;;;;;11.38;7.53;;;3.60;99.90;;;;;;5072296;28;20482;-68
2022/03/15 00:30:17;;;;;;;13.98;7.22;;;3.60;99.90;;;;;;5068838;28;20048;-68
2022/03/15 00:32:44;;;;;;;10.25;6.28;;;3.50;99.90;;;;;;5065904;28;20056;-68
2022/03/15 00:35:18;;;;;;;12.18;5.78;;;3.50;99.90;;;;;;5068007;28;20131;-68
2022/03/15 00:37:49;;;;;;;12.13;7.20;;;3.50;99.90;;;;;;5065518;28;20044;-68
2022/03/15 00:40:16;;;;;;;16.60;7.35;;;3.50;99.90;;;;;;5061872;28;20060;-67
2022/03/15 00:42:52;;;;;;;12.10;6.90;;;3.60;99.90;;;;;;5065450;28;20098;-68
2022/03/15 00:45:19;;;;;;;;;;;3.60;99.90;;;;;;5068544;28;20040;-68
2022/03/15 00:47:45;;;;;;;11.70;5.60;;;3.50;99.90;;;;;;5065016;28;19959;-68
2022/03/15 00:50:11;;;;;;;14.15;5.50;;;3.60;99.90;;;;;;5067509;28;20032;-68
2022/03/15 00:52:37;;;;;;;11.20;6.10;;;3.50;99.90;;;;;;5073375;28;20102;-68
2022/03/15 00:55:04;;;;;;;17.25;7.53;;;3.50;99.90;;;;;;5065974;28;20068;-68
2022/03/15 00:57:31;;;;;;;12.52;7.55;;;3.40;99.90;;;;;;5065524;28;20063;-68
2022/03/15 00:59:57;;;;;;;15.80;7.72;;;3.40;99.90;;;;;;5066753;28;20080;-68
2022/03/15 01:02:23;;;;;;;13.30;8.20;;;3.30;99.90;;;;;;5072189;28;20080;-68
2022/03/15 01:04:49;;;;;;;12.82;7.18;;;3.30;99.90;;;;;;5065993;28;20044;-68
2022/03/15 01:07:15;;;;;;;10.82;6.50;;;3.30;99.90;;;;;;5068069;28;20040;-68
2022/03/15 01:09:42;;;;;;;9.02;5.25;;;3.30;99.90;;;;;;5067098;28;20040;-68
2022/03/15 01:12:08;;;;;;;11.45;6.05;;;3.20;99.90;;;;;;5065900;28;20071;-68
2022/03/15 01:14:34;;;;;;;11.85;6.40;;;3.20;99.90;;;;;;5067226;28;20028;-68
2022/03/15 01:17:00;;;;;;;11.68;6.18;;;3.20;99.90;;;;;;5064540;28;20525;-68
2022/03/15 01:19:26;;;;;;;11.40;5.75;;;3.20;99.90;;;;;;5065697;28;20048;-68
2022/03/15 01:21:52;;;;;;;17.80;7.68;;;3.20;99.90;;;;;;5062151;28;20047;-68
2022/03/15 01:24:18;;;;;;;10.23;5.95;;;3.20;99.90;;;;;;5065551;28;20036;-68
2022/03/15 01:26:44;;;;;;;13.40;7.20;;;3.10;99.90;;;;;;5066367;28;20040;-68
2022/03/15 01:29:10;;;;;;;12.32;6.05;;;3.20;99.90;;;;;;5065401;28;20072;-68
2022/03/15 01:31:36;;;;;;;12.23;6.00;;;3.20;99.90;;;;;;5064138;28;20079;-68
2022/03/15 01:34:01;;;;;;;9.93;6.25;;;3.10;99.90;;;;;;5097640;28;20036;-68
2022/03/15 01:36:27;;;;;;;14.02;6.35;;;3.20;99.90;;;;;;5068096;28;20037;-67
2022/03/15 01:38:53;;;;;;;13.60;6.65;;;3.20;99.90;;;;;;5066640;28;20072;-68
2022/03/15 01:41:21;;;;;;;14.90;6.78;;;3.20;99.90;;;;;;5065981;28;20036;-68
2022/03/15 01:43:46;;;;;;;12.57;6.88;;;3.10;99.90;;;;;;5066005;28;21064;-67
2022/03/15 01:46:13;;;;;;;14.13;7.10;;;3.20;99.90;;;;;;5065871;28;20131;-68
2022/03/15 01:48:39;;;;;;;12.25;6.55;;;3.20;99.90;;;;;;5064008;28;20039;-68
2022/03/15 01:51:06;;;;;;;10.88;7.60;;;3.20;99.90;;;;;;5061639;28;20383;-68
2022/03/15 01:53:32;;;;;;;17.45;7.45;;;3.30;99.90;;;;;;5066410;28;20048;-68
2022/03/15 01:55:59;;;;;;;11.75;7.13;;;3.30;99.90;;;;;;5064704;28;20044;-68
2022/03/15 01:58:25;;;;;;;11.65;5.68;;;3.30;99.90;;;;;;5067752;28;20075;-68
2022/03/15 02:00:51;;;;;;;10.18;7.03;;;3.40;99.90;;;;;;5069430;28;20086;-68
2022/03/15 02:03:17;;;;;;;12.57;7.57;;;3.40;99.90;;;;;;5070195;28;20383;-68
2022/03/15 02:05:43;;;;;;;9.65;6.63;;;3.40;99.90;;;;;;5067350;28;20047;-68
2022/03/15 02:08:11;;;;;;;11.23;7.18;;;3.50;99.90;;;;;;5069594;28;20375;-68
2022/03/15 02:10:37;;;;;;;10.52;7.38;;;3.50;99.90;;;;;;5067976;28;20040;-68
2022/03/15 02:13:02;;;;;;;12.73;6.88;;;3.60;99.90;;;;;;5068957;28;20475;-68
2022/03/15 02:15:28;;;;;;;12.07;7.80;;;3.70;99.90;;;;;;5068372;28;20414;-68
2022/03/15 02:17:54;;;;;;;12.57;7.13;;;3.70;99.90;;;;;;5068616;28;20043;-68
2022/03/15 02:20:20;;;;;;;11.18;6.93;;;3.80;99.90;;;;;;5070283;28;20037;-68
2022/03/15 02:22:45;;;;;;;12.23;7.47;;;3.80;99.90;;;;;;5069876;28;20075;-68
2022/03/15 02:25:12;;;;;;;12.93;7.68;;;3.90;99.90;;;;;;5070150;28;20040;-68
2022/03/15 02:27:38;;;;;;;17.65;8.60;;;4.00;99.90;;;;;;5066610;28;20544;-67
2022/03/15 02:30:05;;;;;;;11.73;6.38;;;4.00;99.90;;;;;;5070272;28;20020;-67
2022/03/15 02:32:31;;;;;;;14.40;7.32;;;4.00;99.90;;;;;;5068279;28;20111;-68
2022/03/15 02:34:56;;;;;;;11.20;5.88;;;4.10;99.90;;;;;;5069317;28;20213;-68
2022/03/15 02:37:24;;;;;;;14.43;6.90;;;4.10;99.90;;;;;;5069423;28;20036;-68
2022/03/15 02:39:50;;;;;;;11.57;7.22;;;4.10;99.90;;;;;;5069262;28;20040;-67
2022/03/15 02:42:15;;;;;;;12.85;7.43;;;4.10;99.90;;;;;;5067742;28;20051;-68
2022/03/15 02:44:41;;;;;;;8.55;7.15;;;4.10;99.90;;;;;;5069323;28;20032;-68
2022/03/15 02:47:07;;;;;;;16.38;7.82;;;4.10;99.90;;;;;;5068436;28;20039;-68
2022/03/15 02:49:32;;;;;;;11.90;7.60;;;4.10;99.90;;;;;;5067073;28;20082;-68
2022/03/15 02:51:58;;;;;;;13.57;7.13;;;4.10;99.90;;;;;;5068953;28;20127;-68
2022/03/15 02:54:24;;;;;;;10.82;6.28;;;4.00;99.90;;;;;;5083926;28;20040;-68
2022/03/15 02:56:50;;;;;;;11.40;6.75;;;4.10;99.90;;;;;;5067050;28;20139;-68
2022/03/15 02:59:16;;;;;;;14.63;7.03;;;4.10;99.90;;;;;;5069468;28;20105;-68
2022/03/15 03:01:46;;;;;;;11.98;6.78;;;4.10;99.90;;;;;;5064530;28;20143;-68
2022/03/15 03:04:12;;;;;;;14.20;6.85;;;4.00;99.90;;;;;;5068067;28;20083;-68
2022/03/15 03:06:41;;;;;;;16.00;7.50;;;4.10;99.90;;;;;;5068475;28;20073;-67
2022/03/15 03:09:07;;;;;;;13.95;7.57;;;4.00;99.90;;;;;;5068223;28;20036;-67
2022/03/15 03:11:32;;;;;;;13.23;8.45;;;4.00;99.90;;;;;;5066952;28;20037;-68
2022/03/15 03:14:00;;;;;;;15.40;7.38;;;4.00;99.90;;;;;;5068520;28;20048;-68
2022/03/15 03:16:26;;;;;;;15.68;6.95;;;3.90;99.90;;;;;;5068281;28;20387;-68
2022/03/15 03:18:58;;;;;;;11.48;6.43;;;4.00;99.90;;;;;;5069180;28;20036;-68
2022/03/15 03:21:25;;;;;;;15.23;7.10;;;3.90;99.90;;;;;;5067683;28;20047;-68
2022/03/15 03:23:53;;;;;;;15.43;7.30;;;3.90;99.90;;;;;;5067356;28;20044;-67
2022/03/15 03:26:20;;;;;;;12.45;6.80;;;3.90;99.90;;;;;;5068226;28;20040;-68
2022/03/15 03:28:45;;;;;;;8.38;6.18;;;3.90;99.90;;;;;;5069821;28;20040;-68
2022/03/15 03:31:11;;;;;;;12.98;7.28;;;3.90;99.90;;;;;;5064144;28;20055;-68
2022/03/15 03:33:37;;;;;;;12.68;7.22;;;4.00;99.90;;;;;;5067661;28;20052;-68
2022/03/15 03:36:04;;;;;;;13.48;8.18;;;4.00;99.90;;;;;;5068924;28;20032;-68
2022/03/15 03:38:30;;;;;;;18.67;8.13;;;4.00;99.90;;;;;;5068694;28;20475;-68
2022/03/15 03:40:59;;;;;;;18.42;10.05;;;4.00;99.90;;;;;;5070417;28;20045;-68
2022/03/15 03:43:25;;;;;;;25.10;11.25;;;4.10;99.90;;;;;;5069576;28;20037;-67
2022/03/15 03:45:50;;;;;;;23.05;10.30;;;4.10;99.90;;;;;;5069607;28;20507;-67
2022/03/15 03:48:16;;;;;;;18.98;9.23;;;4.10;99.90;;;;;;5067939;28;20098;-68
2022/03/15 03:50:43;;;;;;;25.67;10.40;;;4.20;99.90;;;;;;5070207;28;20049;-68
2022/03/15 03:53:09;;;;;;;17.70;9.90;;;4.30;99.90;;;;;;5099731;28;20085;-68
2022/03/15 03:55:36;;;;;;;19.42;9.13;;;4.30;99.90;;;;;;5071377;28;20036;-68
2022/03/15 03:58:02;;;;;;;15.55;8.88;;;4.30;99.90;;;;;;5069357;28;20125;-68
2022/03/15 04:00:28;;;;;;;19.38;9.70;;;4.30;99.90;;;;;;5067273;28;20522;-68
2022/03/15 04:02:57;;;;;;;13.38;7.97;;;4.30;99.90;;;;;;5067365;28;20040;-68
2022/03/15 04:05:23;;;;;;;15.70;8.18;;;4.30;99.90;;;;;;5067763;28;20055;-68
2022/03/15 04:07:49;;;;;;;11.90;7.53;;;4.20;99.90;;;;;;5066379;28;20040;-68
2022/03/15 04:10:21;;;;;;;18.42;8.35;;;4.20;99.90;;;;;;5069411;28;20040;-68
2022/03/15 04:12:47;;;;;;;21.30;10.43;;;4.20;99.90;;;;;;5082560;28;20059;-68
2022/03/15 04:15:13;;;;;;;17.33;8.85;;;4.20;99.90;;;;;;5069904;28;20058;-68
2022/03/15 04:17:39;;;;;;;21.55;9.82;;;4.20;99.90;;;;;;5066714;28;20563;-68
2022/03/15 04:20:05;;;;;;;24.33;11.00;;;4.20;99.90;;;;;;5066093;28;20106;-67
2022/03/15 04:22:31;;;;;;;27.48;10.55;;;4.30;99.90;;;;;;5066554;28;20084;-68
2022/03/15 04:24:57;;;;;;;23.98;10.50;;;4.30;99.90;;;;;;5065490;28;20062;-67
2022/03/15 04:27:22;;;;;;;12.65;9.13;;;4.30;99.90;;;;;;5068041;28;20493;-67
2022/03/15 04:29:48;;;;;;;15.70;9.60;;;4.40;99.90;;;;;;5065642;28;20064;-67
2022/03/15 04:32:14;;;;;;;20.30;9.48;;;4.40;99.90;;;;;;5068632;28;20230;-68
2022/03/15 04:34:40;;;;;;;15.32;9.98;;;4.40;99.90;;;;;;5067394;28;20041;-68
2022/03/15 04:37:06;;;;;;;17.52;10.07;;;4.50;99.90;;;;;;5066902;28;20048;-68
2022/03/15 04:39:33;;;;;;;19.23;11.07;;;4.40;99.90;;;;;;5065994;28;20502;-68
2022/03/15 04:41:58;;;;;;;17.95;11.60;;;4.50;99.90;;;;;;5068409;28;20051;-68
2022/03/15 04:44:24;;;;;;;23.45;11.65;;;4.50;99.90;;;;;;5066838;28;20433;-68
2022/03/15 04:46:50;;;;;;;23.35;12.13;;;4.50;99.90;;;;;;5068025;28;20040;-68
2022/03/15 04:49:16;;;;;;;19.70;12.23;;;4.60;99.90;;;;;;5072307;28;20399;-68
2022/03/15 04:51:41;;;;;;;23.50;13.77;;;4.60;99.90;;;;;;5064084;28;20127;-68
2022/03/15 04:54:07;;;;;;;26.50;13.48;;;4.70;99.90;;;;;;5066830;28;20037;-68
2022/03/15 04:56:33;;;;;;;20.17;12.25;;;4.70;99.90;;;;;;5067778;28;20051;-68
2022/03/15 04:58:58;;;;;;;24.90;14.23;;;4.80;99.90;;;;;;5068411;28;20071;-68
2022/03/15 05:01:24;;;;;;;22.25;13.90;;;4.80;99.90;;;;;;5066960;28;20045;-68
2022/03/15 05:03:50;;;;;;;37.72;16.38;;;4.90;99.90;;;;;;5067640;28;20127;-68
2022/03/15 05:06:16;;;;;;;31.27;16.83;;;4.90;99.90;;;;;;5066689;28;20051;-68
2022/03/15 05:08:42;;;;;;;26.08;15.43;;;4.90;99.90;;;;;;5065528;28;20508;-68
2022/03/15 05:11:08;;;;;;;29.95;15.35;;;4.90;99.90;;;;;;5068104;28;20097;-68
2022/03/15 05:13:40;;;;;;;28.05;15.90;;;4.90;99.90;;;;;;5067129;28;20391;-68
2022/03/15 05:16:15;;;;;;;33.55;18.05;;;5.00;99.90;;;;;;5069400;28;20047;-68
2022/03/15 05:18:41;;;;;;;29.42;17.52;;;5.00;99.90;;;;;;5067417;28;20131;-68
2022/03/15 05:21:08;;;;;;;38.63;17.48;;;5.00;99.90;;;;;;5068588;28;20041;-68
2022/03/15 05:23:34;;;;;;;33.40;20.70;;;5.00;99.90;;;;;;5065620;28;20066;-68
2022/03/15 05:26:00;;;;;;;32.03;19.00;;;5.00;99.90;;;;;;5067456;28;20517;-68
2022/03/15 05:28:29;;;;;;;35.08;20.10;;;4.90;99.90;;;;;;5097538;28;20052;-68
2022/03/15 05:30:55;;;;;;;39.55;19.80;;;5.00;99.90;;;;;;5066271;28;20100;-68
2022/03/15 05:33:21;;;;;;;35.13;19.42;;;5.00;99.90;;;;;;5068437;28;20494;-68
2022/03/15 05:35:46;;;;;;;39.85;22.77;;;5.00;99.90;;;;;;5069932;28;20488;-68
2022/03/15 05:38:12;;;;;;;39.22;20.83;;;5.00;99.90;;;;;;5072212;28;20036;-68
2022/03/15 05:40:38;;;;;;;39.42;22.13;;;4.90;99.90;;;;;;5073038;28;20037;-68
2022/03/15 05:43:04;;;;;;;33.38;21.17;;;5.00;99.90;;;;;;5100629;28;20039;-68
2022/03/15 05:45:29;;;;;;;37.03;21.75;;;5.00;99.90;;;;;;5070420;28;20037;-67
2022/03/15 05:47:55;;;;;;;37.20;23.50;;;5.00;99.90;;;;;;5071998;28;20075;-68
2022/03/15 05:50:22;;;;;;;39.50;22.58;;;5.00;99.90;;;;;;5068633;28;20528;-68
2022/03/15 05:52:48;;;;;;;49.15;23.98;;;5.00;99.90;;;;;;5069215;28;20441;-68
2022/03/15 05:55:14;;;;;;;40.70;23.88;;;5.00;99.90;;;;;;5069059;28;20041;-68
2022/03/15 05:57:40;;;;;;;47.25;23.60;;;5.00;99.90;;;;;;5068545;28;20044;-68
2022/03/15 06:00:06;;;;;;;37.05;21.95;;;5.00;99.90;;;;;;5068504;28;20046;-68
2022/03/15 06:02:33;;;;;;;40.50;22.45;;;5.10;99.90;;;;;;5064754;28;20108;-68
2022/03/15 06:04:59;;;;;;;38.60;21.30;;;5.10;99.90;;;;;;5067275;28;20062;-68
2022/03/15 06:07:26;;;;;;;39.03;21.63;;;5.20;99.90;;;;;;5101128;28;20491;-67
2022/03/15 06:09:52;;;;;;;38.58;21.95;;;5.20;99.90;;;;;;5069101;28;20040;-68
2022/03/15 06:12:20;;;;;;;36.97;21.88;;;5.20;99.90;;;;;;5070203;28;20046;-68
2022/03/15 06:14:46;;;;;;;36.05;22.05;;;5.30;99.90;;;;;;5068572;28;20051;-68
2022/03/15 06:17:12;;;;;;;34.80;23.13;;;5.30;99.90;;;;;;5069330;28;20044;-68
2022/03/15 06:19:38;;;;;;;39.28;23.17;;;5.40;99.90;;;;;;5070378;28;20101;-68
2022/03/15 06:22:03;;;;;;;37.08;22.13;;;5.40;99.90;;;;;;5070910;28;20495;-68
2022/03/15 06:24:29;;;;;;;41.50;23.08;;;5.40;99.90;;;;;;5067033;28;20040;-68
2022/03/15 06:26:57;;;;;;;39.33;22.20;;;5.50;99.90;;;;;;5068211;28;20036;-67
2022/03/15 06:29:23;;;;;;;32.63;22.13;;;5.50;99.90;;;;;;5068900;28;20039;-67
2022/03/15 06:31:48;;;;;;;43.83;23.17;;;5.60;99.90;;;;;;5068233;28;20471;-67
2022/03/15 06:34:14;;;;;;;34.67;22.83;;;5.60;99.90;;;;;;5066621;28;20055;-67
2022/03/15 06:36:42;;;;;;;45.50;22.83;;;5.70;99.90;;;;;;5068810;28;20033;-67
2022/03/15 06:39:07;;;;;;;37.72;23.98;;;5.70;99.90;;;;;;5071250;28;20041;-67
2022/03/15 06:41:38;;;;;;;39.78;23.98;;;5.70;99.90;;;;;;5066598;28;20560;-67
2022/03/15 06:44:05;;;;;;;34.75;23.60;;;5.80;99.90;;;;;;5068120;28;20112;-68
2022/03/15 06:46:31;;;;;;;40.45;24.52;;;5.80;99.90;;;;;;5066635;28;20041;-68
2022/03/15 06:48:57;;;;;;;38.30;24.02;;;5.90;99.90;;;;;;5067823;28;21077;-68
2022/03/15 06:51:23;;;;;;;37.40;25.10;;;5.80;99.90;;;;;;5070954;28;20173;-68
2022/03/15 06:53:49;;;;;;;35.28;23.50;;;5.90;99.90;;;;;;5066405;28;20040;-68
2022/03/15 06:56:15;;;;;;;37.15;23.88;;;5.90;99.90;;;;;;5069435;28;20036;-68
2022/03/15 06:58:40;;;;;;;40.47;23.33;;;6.00;99.90;;;;;;5068400;28;20047;-68
2022/03/15 07:01:06;;;;;;;38.75;23.65;;;6.00;99.90;;;;;;5065736;28;20040;-67
2022/03/15 07:03:33;;;;;;;41.30;23.85;;;6.00;99.90;;;;;;5065595;28;20076;-68
2022/03/15 07:05:59;;;;;;;40.20;24.02;;;6.10;99.90;;;;;;5065041;28;20044;-68
2022/03/15 07:08:25;;;;;;;42.47;24.02;;;6.10;99.90;;;;;;5067429;28;20039;-68
2022/03/15 07:10:52;;;;;;;40.42;24.50;;;6.10;99.90;;;;;;5068033;28;20533;-68
2022/03/15 07:13:18;;;;;;;38.15;23.67;;;6.10;99.90;;;;;;5066531;28;20048;-68
2022/03/15 07:15:44;;;;;;;37.17;24.55;;;6.10;99.90;;;;;;5067005;28;20028;-68
2022/03/15 07:18:10;;;;;;;40.10;25.80;;;6.10;99.90;;;;;;5069540;28;20052;-68
2022/03/15 07:20:36;;;;;;;42.38;25.40;;;6.10;99.90;;;;;;5066710;28;20094;-68
2022/03/15 07:23:02;;;;;;;45.03;24.98;;;6.20;99.90;;;;;;5067896;28;20032;-68
2022/03/15 07:25:28;;;;;;;37.88;24.17;;;6.20;99.90;;;;;;5061139;28;20036;-68
2022/03/15 07:27:53;;;;;;;37.15;24.27;;;6.30;99.90;;;;;;5066918;28;20101;-68
2022/03/15 07:30:19;;;;;;;41.50;23.95;;;6.30;99.90;;;;;;5068018;28;20041;-68
2022/03/15 07:32:45;;;;;;;33.25;24.33;;;6.40;99.90;;;;;;5065747;28;20654;-68
2022/03/15 07:35:11;;;;;;;38.13;23.80;;;6.40;99.90;;;;;;5061557;28;20043;-68
2022/03/15 07:37:37;;;;;;;33.85;23.92;;;6.50;99.90;;;;;;5062821;28;20046;-68
2022/03/15 07:40:04;;;;;;;36.25;24.52;;;6.50;99.90;;;;;;5065948;28;20082;-68
2022/03/15 07:42:30;;;;;;;42.42;26.17;;;6.50;99.90;;;;;;5062361;28;20024;-68
2022/03/15 07:44:56;;;;;;;33.13;24.55;;;6.60;99.90;;;;;;5063355;28;20538;-68
2022/03/15 07:47:21;;;;;;;37.25;26.00;;;6.50;99.90;;;;;;5065455;28;20055;-68
2022/03/15 07:49:48;;;;;;;35.25;24.65;;;6.50;99.90;;;;;;5061389;28;20387;-68
2022/03/15 07:52:14;;;;;;;34.95;24.90;;;6.50;99.90;;;;;;5065121;28;20100;-68
2022/03/15 07:54:40;;;;;;;35.25;23.70;;;6.60;99.90;;;;;;5064056;28;20044;-68
2022/03/15 07:57:07;;;;;;;32.85;24.63;;;6.60;99.90;;;;;;5066141;28;20094;-68
2022/03/15 07:59:33;;;;;;;34.40;24.10;;;6.70;99.90;;;;;;5096607;28;20107;-68
2022/03/15 08:01:58;;;;;;;35.58;25.63;;;6.60;99.90;;;;;;5062844;28;20098;-68
2022/03/15 08:04:24;;;;;;;38.40;25.45;;;6.70;99.90;;;;;;5060038;28;20041;-68
2022/03/15 08:06:50;;;;;;;39.28;24.23;;;6.70;99.90;;;;;;5064364;28;20036;-68
2022/03/15 08:09:15;;;;;;;33.33;24.42;;;6.70;99.90;;;;;;5064815;28;20076;-68
2022/03/15 08:11:41;;;;;;;34.63;25.77;;;6.70;99.90;;;;;;5064328;28;20167;-68
2022/03/15 08:14:09;;;;;;;36.85;24.77;;;6.70;99.90;;;;;;5062648;28;20044;-68
2022/03/15 08:16:35;;;;;;;35.28;24.60;;;6.70;99.90;;;;;;5064763;28;20036;-68
2022/03/15 08:19:01;;;;;;;37.22;24.48;;;6.80;99.90;;;;;;5061330;28;20040;-68
2022/03/15 08:21:28;;;;;;;34.40;25.17;;;6.80;99.90;;;;;;5064626;28;20601;-68
2022/03/15 08:23:54;;;;;;;37.28;23.85;;;6.80;99.90;;;;;;5096587;28;20056;-68
2022/03/15 08:26:20;;;;;;;36.08;24.13;;;6.90;99.90;;;;;;5063034;28;20028;-68
2022/03/15 08:28:48;;;;;;;30.48;23.17;;;7.00;99.90;;;;;;5063689;28;20037;-68
2022/03/15 08:31:14;;;;;;;33.10;24.55;;;7.00;99.90;;;;;;5065247;28;20055;-68
2022/03/15 08:33:40;;;;;;;33.05;23.80;;;7.00;99.90;;;;;;5063325;28;20106;-68
2022/03/15 08:36:06;;;;;;;34.63;25.15;;;7.00;99.90;;;;;;5061950;28;20056;-68
2022/03/15 08:38:32;;;;;;;33.63;24.77;;;7.10;99.90;;;;;;5063846;28;20032;-68
2022/03/15 08:40:58;;;;;;;36.28;25.63;;;7.10;99.90;;;;;;5063563;28;20127;-68
2022/03/15 08:43:24;;;;;;;29.67;23.58;;;7.10;99.90;;;;;;5061039;28;20077;-68
2022/03/15 08:45:51;;;;;;;32.97;24.88;;;7.20;99.90;;;;;;5062667;28;20079;-68
2022/03/15 08:48:17;;;;;;;32.13;23.50;;;7.20;99.90;;;;;;5060792;28;20104;-68
2022/03/15 08:50:43;;;;;;;32.78;24.38;;;7.20;99.90;;;;;;5064170;28;20143;-68
2022/03/15 08:53:08;;;;;;;33.50;26.02;;;7.30;99.90;;;;;;5062322;28;20033;-68
2022/03/15 08:55:35;;;;;;;33.05;25.27;;;7.40;99.90;;;;;;5059900;28;20068;-68
2022/03/15 08:58:02;;;;;;;31.63;23.60;;;7.40;99.90;;;;;;5062244;28;20472;-68
2022/03/15 09:00:28;;;;;;;33.08;23.45;;;7.40;99.90;;;;;;5063234;28;20501;-68
2022/03/15 09:02:53;;;;;;;34.50;23.58;;;7.50;99.90;;;;;;5063382;28;20139;-68
2022/03/15 09:05:20;;;;;;;35.85;24.45;;;7.50;99.90;;;;;;5062703;28;20127;-68
2022/03/15 09:07:53;;;;;;;33.50;22.80;;;7.50;99.90;;;;;;5063427;28;20041;-68
2022/03/15 09:10:19;;;;;;;33.58;24.20;;;7.50;99.90;;;;;;5062800;28;20044;-68
2022/03/15 09:12:46;;;;;;;36.63;26.38;;;7.60;99.90;;;;;;5061866;28;20106;-68
2022/03/15 09:15:12;;;;;;;30.23;23.15;;;7.50;99.90;;;;;;5064685;28;20076;-68
2022/03/15 09:17:38;;;;;;;31.90;23.77;;;7.60;99.90;;;;;;5063635;28;20048;-68
2022/03/15 09:20:05;;;;;;;30.90;23.05;;;7.60;99.90;;;;;;5061757;28;20036;-68
2022/03/15 09:22:31;;;;;;;31.75;24.67;;;7.60;99.90;;;;;;5061144;28;20047;-68
2022/03/15 09:24:57;;;;;;;32.47;25.30;;;7.60;99.90;;;;;;5065383;28;20111;-68
2022/03/15 09:27:23;;;;;;;35.03;23.95;;;7.70;99.90;;;;;;5064694;28;20374;-69
2022/03/15 09:29:49;;;;;;;30.42;23.10;;;7.70;99.90;;;;;;5061807;28;20091;-68
2022/03/15 09:32:15;;;;;;;33.10;23.02;;;7.70;99.90;;;;;;5062509;28;20398;-68
2022/03/15 09:34:42;;;;;;;29.40;22.25;;;7.70;99.90;;;;;;5064419;28;20499;-68
2022/03/15 09:37:08;;;;;;;30.92;23.63;;;7.70;99.90;;;;;;5062602;28;20037;-68
2022/03/15 09:39:33;;;;;;;32.28;23.20;;;7.80;99.90;;;;;;5062725;28;20040;-69
2022/03/15 09:42:00;;;;;;;33.03;23.65;;;7.80;99.90;;;;;;5063157;28;20045;-68
2022/03/15 09:44:28;;;;;;;33.30;23.67;;;7.80;99.90;;;;;;5064525;28;20664;-68
2022/03/15 09:47:00;;;;;;;31.02;24.25;;;7.80;99.90;;;;;;5062286;28;20039;-68
2022/03/15 09:49:26;;;;;;;33.83;24.27;;;7.90;99.90;;;;;;5059445;28;20090;-68
2022/03/15 09:51:59;;;;;;;30.45;24.10;;;7.90;99.90;;;;;;5064679;28;20041;-68
2022/03/15 09:54:26;;;;;;;30.92;23.17;;;8.00;99.90;;;;;;5061837;28;20036;-69
2022/03/15 09:56:53;;;;;;;29.90;22.17;;;8.00;99.90;;;;;;5079420;28;20370;-68
2022/03/15 09:59:21;;;;;;;33.83;22.38;;;8.10;99.90;;;;;;5064860;28;20043;-68
2022/03/15 10:01:50;;;;;;;28.15;21.75;;;8.10;99.90;;;;;;5061442;28;20041;-68
2022/03/15 10:04:20;;;;;;;30.92;20.35;;;8.20;99.90;;;;;;5094025;28;20055;-68
2022/03/15 10:06:47;;;;;;;27.10;21.27;;;8.30;99.90;;;;;;5065263;28;20494;-68
2022/03/15 10:09:14;;;;;;;35.20;22.85;;;8.30;99.90;;;;;;5063401;28;20039;-69
2022/03/15 10:11:41;;;;;;;32.08;21.48;;;8.40;99.90;;;;;;5065006;28;20452;-69
2022/03/15 10:14:07;;;;;;;30.88;20.60;;;8.50;99.90;;;;;;5059033;28;20406;-68
2022/03/15 10:16:41;;;;;;;33.88;23.33;;;8.50;99.90;;;;;;5065098;28;20047;-68
2022/03/15 10:19:15;;;;;;;29.83;21.58;;;8.60;99.90;;;;;;5064718;28;20036;-69
2022/03/15 10:21:51;;;;;;;33.63;22.60;;;8.60;99.90;;;;;;5064704;28;20033;-69
2022/03/15 10:24:20;;;;;;;25.15;20.30;;;8.70;99.90;;;;;;5065199;28;20056;-69
2022/03/15 10:26:47;;;;;;;27.55;19.95;;;8.80;99.90;;;;;;5064710;28;20052;-69
2022/03/15 10:29:15;;;;;;;32.20;21.05;;;8.80;99.90;;;;;;5065377;28;20064;-69
2022/03/15 10:31:42;;;;;;;30.42;20.33;;;8.90;99.90;;;;;;5066330;28;20610;-69
2022/03/15 10:34:09;;;;;;;25.13;19.65;;;9.00;99.90;;;;;;5065766;28;20063;-69
2022/03/15 10:36:39;;;;;;;28.25;19.58;;;9.00;99.90;;;;;;5067184;28;20062;-69
2022/03/15 10:39:06;;;;;;;26.73;17.92;;;9.10;99.90;;;;;;5063433;28;20509;-69
2022/03/15 10:41:49;;;;;;;32.63;19.48;;;9.10;99.90;;;;;;5066028;28;20082;-69
2022/03/15 10:44:35;;;;;;;29.23;19.08;;;9.20;99.90;;;;;;5065310;28;20041;-69
2022/03/15 10:47:12;;;;;;;25.77;19.00;;;9.40;99.90;;;;;;5065733;28;20052;-69
2022/03/15 10:49:54;;;;;;;23.60;17.75;;;9.50;99.90;;;;;;5064377;28;20111;-69
2022/03/15 10:52:37;;;;;;;25.52;17.10;;;9.50;99.90;;;;;;5063567;28;20050;-69
2022/03/15 10:55:10;;;;;;;21.80;16.08;;;9.60;99.90;;;;;;5066333;28;20127;-69
2022/03/15 10:58:02;;;;;;;23.40;16.92;;;9.60;99.90;;;;;;5069356;28;20063;-69
2022/03/15 11:00:38;;;;;;;23.88;17.58;;;9.70;99.90;;;;;;5061890;28;20511;-69
2022/03/15 11:03:10;;;;;;;23.75;17.25;;;9.70;99.90;;;;;;5066765;28;20124;-69
2022/03/15 11:05:41;;;;;;;22.25;16.00;;;9.70;99.90;;;;;;5067044;28;20047;-69
2022/03/15 11:08:10;;;;;;;23.52;15.30;;;9.80;99.90;;;;;;5067783;28;20063;-69
2022/03/15 11:10:37;;;;;;;25.10;17.13;;;9.80;99.90;;;;;;5099553;28;20056;-69
2022/03/15 11:13:09;;;;;;;21.85;15.05;;;9.90;99.90;;;;;;5064445;28;20033;-69
2022/03/15 11:15:41;;;;;;;21.63;15.57;;;9.90;99.90;;;;;;5064900;28;20055;-69
2022/03/15 11:18:09;;;;;;;25.95;16.77;;;10.00;99.90;;;;;;5067259;28;20127;-69
2022/03/15 11:20:39;;;;;;;22.10;15.85;;;10.00;99.90;;;;;;5066552;28;20048;-69
2022/03/15 11:23:08;;;;;;;23.45;15.30;;;10.10;99.90;;;;;;5093108;28;20497;-69
2022/03/15 11:25:37;;;;;;;21.35;15.75;;;10.10;99.90;;;;;;5065711;28;20667;-69
2022/03/15 11:28:06;;;;;;;23.48;14.80;;;10.20;99.90;;;;;;5064060;28;20042;-69
2022/03/15 11:30:32;;;;;;;21.92;13.52;;;10.20;99.90;;;;;;5063461;28;20044;-69
2022/03/15 11:33:02;;;;;;;22.48;14.50;;;10.20;99.90;;;;;;5064579;28;20052;-69
2022/03/15 11:35:30;;;;;;;22.45;14.70;;;10.30;99.90;;;;;;5056921;28;20051;-69
2022/03/15 11:37:59;;;;;;;21.92;14.27;;;10.40;99.90;;;;;;5061059;28;20098;-70
2022/03/15 11:40:26;;;;;;;19.75;14.65;;;10.40;99.90;;;;;;5086841;28;20036;-69
2022/03/15 11:43:32;;;;;;;18.60;14.10;;;10.40;99.90;;;;;;5060570;28;20040;-69
2022/03/15 11:46:00;;;;;;;15.43;10.83;;;10.40;99.90;;;;;;5062882;28;20044;-69
2022/03/15 11:48:48;;;;;;;17.50;11.75;;;10.50;99.90;;;;;;5096586;28;20040;-69
2022/03/15 11:51:48;;;;;;;18.25;11.52;;;10.50;99.90;;;;;;5065070;28;20052;-69
2022/03/15 11:54:30;;;;;;;22.13;12.43;;;10.60;99.90;;;;;;5046046;28;20074;-69
2022/03/15 11:57:04;;;;;;;17.58;10.82;;;10.70;99.90;;;;;;5064240;28;20076;-69
2022/03/15 11:59:53;;;;;;;15.60;11.10;;;10.80;99.90;;;;;;5066091;28;20131;-69
2022/03/15 12:02:39;;;;;;;15.48;11.40;;;10.80;99.90;;;;;;5059925;28;20056;-69
2022/03/15 12:05:17;;;;;;;20.70;11.13;;;10.80;99.90;;;;;;5062760;28;20033;-69
2022/03/15 12:07:46;;;;;;;17.00;10.60;;;10.80;99.90;;;;;;5064690;28;20133;-69
2022/03/15 12:10:22;;;;;;;15.77;9.98;;;10.80;99.90;;;;;;5060843;28;20040;-69
2022/03/15 12:12:59;;;;;;;17.05;10.00;;;10.80;99.90;;;;;;5061470;28;20129;-69
2022/03/15 12:15:38;;;;;;;17.65;11.25;;;10.80;99.90;;;;;;5062514;28;20479;-69
2022/03/15 12:21:06;;;;;;;17.75;9.85;;;10.80;99.90;;;;;;5066052;28;20554;-69
2022/03/15 12:23:47;;;;;;;20.52;10.00;;;10.90;99.90;;;;;;5062632;28;20048;-69
2022/03/15 12:26:26;;;;;;;16.23;10.32;;;10.90;99.90;;;;;;5062359;28;20032;-70
2022/03/15 12:29:13;;;;;;;14.45;10.18;;;10.90;99.90;;;;;;5061966;28;20036;-69
2022/03/15 12:31:47;;;;;;;18.83;11.88;;;10.90;99.90;;;;;;5065497;28;20036;-69
2022/03/15 12:34:14;;;;;;;19.55;11.93;;;10.90;99.90;;;;;;5063966;28;20036;-69
2022/03/15 12:36:55;;;;;;;17.00;11.18;;;10.90;99.90;;;;;;5063989;28;20064;-69
2022/03/15 12:39:24;;;;;;;14.80;10.13;;;10.90;99.90;;;;;;5063170;28;20536;-69
2022/03/15 12:42:09;;;;;;;12.77;9.35;;;10.90;99.90;;;;;;5063590;28;20056;-69
2022/03/15 12:44:43;;;;;;;15.15;8.45;;;11.00;99.90;;;;;;5095564;28;20506;-69
2022/03/15 12:47:10;;;;;;;18.45;9.95;;;11.10;99.90;;;;;;5063367;28;20040;-69